sensor_id;sensor_type;location;lat;lon;timestamp;pressure;altitude;pressure_sealevel;temperature;humidity
60465;BME280;46314;52.392;9.758;2023-06-10T00:00:10;100974.81;;;18.59;52.20
60465;BME280;46314;52.392;9.758;2023-06-10T00:02:36;100975.34;;;18.40;52.84
60465;BME280;46314;52.392;9.758;2023-06-10T00:05:03;100974.31;;;18.57;52.31
60465;BME280;46314;52.392;9.758;2023-06-10T00:07:30;100985.22;;;18.71;52.42
60465;BME280;46314;52.392;9.758;2023-06-10T00:09:56;100982.81;;;18.36;53.07
60465;BME280;46314;52.392;9.758;2023-06-10T00:12:23;100987.31;;;18.49;53.36
60465;BME280;46314;52.392;9.758;2023-06-10T00:14:49;100986.56;;;18.28;54.14
60465;BME280;46314;52.392;9.758;2023-06-10T00:17:17;100991.06;;;18.20;54.04
60465;BME280;46314;52.392;9.758;2023-06-10T00:19:43;100991.03;;;18.41;53.38
60465;BME280;46314;52.392;9.758;2023-06-10T00:22:10;100992.22;;;18.07;54.69
60465;BME280;46314;52.392;9.758;2023-06-10T00:24:37;100998.63;;;18.41;53.95
60465;BME280;46314;52.392;9.758;2023-06-10T00:27:04;100990.03;;;18.70;53.34
60465;BME280;46314;52.392;9.758;2023-06-10T00:29:31;100986.75;;;17.89;55.71
60465;BME280;46314;52.392;9.758;2023-06-10T00:31:57;100991.34;;;17.85;56.29
60465;BME280;46314;52.392;9.758;2023-06-10T00:34:25;101000.22;;;18.17;55.48
60465;BME280;46314;52.392;9.758;2023-06-10T00:36:52;100991.16;;;18.11;55.64
60465;BME280;46314;52.392;9.758;2023-06-10T00:39:19;100993.50;;;17.88;56.65
60465;BME280;46314;52.392;9.758;2023-06-10T00:41:45;100991.59;;;17.80;57.38
60465;BME280;46314;52.392;9.758;2023-06-10T00:44:12;100995.69;;;17.83;57.41
60465;BME280;46314;52.392;9.758;2023-06-10T00:46:38;100991.56;;;17.38;58.86
60465;BME280;46314;52.392;9.758;2023-06-10T00:49:05;100995.88;;;17.56;58.68
60465;BME280;46314;52.392;9.758;2023-06-10T00:51:33;101004.44;;;17.60;58.68
60465;BME280;46314;52.392;9.758;2023-06-10T00:54:00;100996.59;;;17.45;59.58
60465;BME280;46314;52.392;9.758;2023-06-10T00:56:27;100992.19;;;17.44;59.59
60465;BME280;46314;52.392;9.758;2023-06-10T00:58:53;100994.94;;;17.22;60.66
60465;BME280;46314;52.392;9.758;2023-06-10T01:01:20;100999.47;;;17.06;61.51
60465;BME280;46314;52.392;9.758;2023-06-10T01:03:46;100998.06;;;16.82;62.84
60465;BME280;46314;52.392;9.758;2023-06-10T01:06:20;101006.09;;;17.01;62.77
60465;BME280;46314;52.392;9.758;2023-06-10T01:08:55;101001.69;;;16.92;63.28
60465;BME280;46314;52.392;9.758;2023-06-10T01:11:27;100998.56;;;16.84;64.42
60465;BME280;46314;52.392;9.758;2023-06-10T01:13:55;101008.84;;;16.63;65.33
60465;BME280;46314;52.392;9.758;2023-06-10T01:16:22;101008.16;;;16.75;65.15
60465;BME280;46314;52.392;9.758;2023-06-10T01:18:50;100998.19;;;16.39;66.77
60465;BME280;46314;52.392;9.758;2023-06-10T01:21:19;101002.91;;;16.64;66.42
60465;BME280;46314;52.392;9.758;2023-06-10T01:23:46;101000.63;;;16.58;66.83
60465;BME280;46314;52.392;9.758;2023-06-10T01:26:13;101004.38;;;16.62;66.86
60465;BME280;46314;52.392;9.758;2023-06-10T01:28:46;101011.69;;;16.45;67.57
60465;BME280;46314;52.392;9.758;2023-06-10T01:31:17;101005.00;;;16.12;68.64
60465;BME280;46314;52.392;9.758;2023-06-10T01:33:47;101011.94;;;16.70;66.88
60465;BME280;46314;52.392;9.758;2023-06-10T01:36:15;101011.88;;;16.40;67.83
60465;BME280;46314;52.392;9.758;2023-06-10T01:38:46;101016.00;;;16.34;68.39
60465;BME280;46314;52.392;9.758;2023-06-10T01:41:14;101003.19;;;16.07;69.44
60465;BME280;46314;52.392;9.758;2023-06-10T01:43:43;101002.38;;;16.06;69.79
60465;BME280;46314;52.392;9.758;2023-06-10T01:46:10;101009.66;;;16.63;68.38
60465;BME280;46314;52.392;9.758;2023-06-10T01:48:37;101007.00;;;16.67;67.39
60465;BME280;46314;52.392;9.758;2023-06-10T01:51:04;101008.84;;;17.10;66.36
60465;BME280;46314;52.392;9.758;2023-06-10T01:53:30;101003.19;;;15.98;70.78
60465;BME280;46314;52.392;9.758;2023-06-10T01:55:58;101002.59;;;16.57;68.23
60465;BME280;46314;52.392;9.758;2023-06-10T01:58:24;100997.56;;;15.72;71.98
60465;BME280;46314;52.392;9.758;2023-06-10T02:00:51;101006.81;;;15.81;71.44
60465;BME280;46314;52.392;9.758;2023-06-10T02:03:17;101013.88;;;16.14;70.52
60465;BME280;46314;52.392;9.758;2023-06-10T02:05:44;101017.50;;;16.14;70.35
60465;BME280;46314;52.392;9.758;2023-06-10T02:08:11;101020.41;;;15.74;71.74
60465;BME280;46314;52.392;9.758;2023-06-10T02:10:37;101022.22;;;15.61;73.43
60465;BME280;46314;52.392;9.758;2023-06-10T02:13:05;101023.78;;;15.76;73.79
60465;BME280;46314;52.392;9.758;2023-06-10T02:15:31;101035.38;;;15.52;74.17
60465;BME280;46314;52.392;9.758;2023-06-10T02:17:58;101034.03;;;15.49;74.79
60465;BME280;46314;52.392;9.758;2023-06-10T02:20:25;101038.66;;;15.54;75.30
60465;BME280;46314;52.392;9.758;2023-06-10T02:22:52;101030.25;;;15.45;75.85
60465;BME280;46314;52.392;9.758;2023-06-10T02:25:18;101038.28;;;15.29;76.66
60465;BME280;46314;52.392;9.758;2023-06-10T02:27:44;101046.22;;;15.45;76.05
60465;BME280;46314;52.392;9.758;2023-06-10T02:30:13;101053.56;;;15.23;76.96
60465;BME280;46314;52.392;9.758;2023-06-10T02:32:39;101046.91;;;15.59;75.95
60465;BME280;46314;52.392;9.758;2023-06-10T02:35:06;101051.94;;;15.31;77.01
60465;BME280;46314;52.392;9.758;2023-06-10T02:37:33;101052.97;;;15.61;75.91
60465;BME280;46314;52.392;9.758;2023-06-10T02:39:59;101055.44;;;15.54;75.96
60465;BME280;46314;52.392;9.758;2023-06-10T02:42:26;101054.22;;;14.89;78.93
60465;BME280;46314;52.392;9.758;2023-06-10T02:44:52;101057.09;;;15.06;78.39
60465;BME280;46314;52.392;9.758;2023-06-10T02:47:20;101056.78;;;15.08;79.07
60465;BME280;46314;52.392;9.758;2023-06-10T02:49:47;101064.69;;;15.14;78.48
60465;BME280;46314;52.392;9.758;2023-06-10T02:52:13;101061.78;;;14.88;79.08
60465;BME280;46314;52.392;9.758;2023-06-10T02:54:39;101056.09;;;14.71;80.51
60465;BME280;46314;52.392;9.758;2023-06-10T02:57:06;101056.03;;;14.85;80.31
60465;BME280;46314;52.392;9.758;2023-06-10T02:59:32;101055.16;;;14.84;81.23
60465;BME280;46314;52.392;9.758;2023-06-10T03:01:59;101052.50;;;14.79;80.89
60465;BME280;46314;52.392;9.758;2023-06-10T03:04:27;101059.38;;;14.50;82.17
60465;BME280;46314;52.392;9.758;2023-06-10T03:06:53;101057.09;;;14.75;81.62
60465;BME280;46314;52.392;9.758;2023-06-10T03:09:20;101068.53;;;14.65;82.66
60465;BME280;46314;52.392;9.758;2023-06-10T03:11:47;101067.50;;;14.83;82.22
60465;BME280;46314;52.392;9.758;2023-06-10T03:14:13;101058.94;;;14.57;82.64
60465;BME280;46314;52.392;9.758;2023-06-10T03:16:39;101076.69;;;14.84;80.92
60465;BME280;46314;52.392;9.758;2023-06-10T03:19:06;101068.59;;;14.73;81.97
60465;BME280;46314;52.392;9.758;2023-06-10T03:21:34;101067.31;;;14.80;81.78
60465;BME280;46314;52.392;9.758;2023-06-10T03:24:00;101070.22;;;14.97;80.98
60465;BME280;46314;52.392;9.758;2023-06-10T03:26:27;101071.81;;;14.67;83.07
60465;BME280;46314;52.392;9.758;2023-06-10T03:28:53;101073.03;;;14.74;82.32
60465;BME280;46314;52.392;9.758;2023-06-10T03:31:20;101072.53;;;14.50;84.15
60465;BME280;46314;52.392;9.758;2023-06-10T03:33:46;101063.81;;;14.06;85.03
60465;BME280;46314;52.392;9.758;2023-06-10T03:36:13;101070.06;;;14.48;84.17
60465;BME280;46314;52.392;9.758;2023-06-10T03:38:41;101068.13;;;14.35;84.44
60465;BME280;46314;52.392;9.758;2023-06-10T03:41:07;101064.59;;;14.43;85.04
60465;BME280;46314;52.392;9.758;2023-06-10T03:43:34;101067.94;;;14.31;85.28
60465;BME280;46314;52.392;9.758;2023-06-10T03:46:00;101076.13;;;14.50;84.66
60465;BME280;46314;52.392;9.758;2023-06-10T03:48:27;101073.84;;;14.75;83.26
60465;BME280;46314;52.392;9.758;2023-06-10T03:50:53;101074.72;;;14.84;82.75
60465;BME280;46314;52.392;9.758;2023-06-10T03:53:20;101071.06;;;14.75;83.12
60465;BME280;46314;52.392;9.758;2023-06-10T03:55:48;101074.13;;;14.19;85.78
60465;BME280;46314;52.392;9.758;2023-06-10T03:58:14;101078.34;;;14.39;85.45
60465;BME280;46314;52.392;9.758;2023-06-10T04:00:41;101083.69;;;14.27;85.42
60465;BME280;46314;52.392;9.758;2023-06-10T04:03:07;101087.03;;;14.38;85.11
60465;BME280;46314;52.392;9.758;2023-06-10T04:05:34;101096.09;;;14.21;85.76
60465;BME280;46314;52.392;9.758;2023-06-10T04:08:01;101092.53;;;14.07;87.39
60465;BME280;46314;52.392;9.758;2023-06-10T04:10:27;101086.66;;;14.31;87.03
60465;BME280;46314;52.392;9.758;2023-06-10T04:12:55;101086.47;;;14.50;85.27
60465;BME280;46314;52.392;9.758;2023-06-10T04:15:22;101094.81;;;14.64;83.77
60465;BME280;46314;52.392;9.758;2023-06-10T04:17:50;101094.53;;;14.51;84.55
60465;BME280;46314;52.392;9.758;2023-06-10T04:20:17;101098.19;;;15.06;81.83
60465;BME280;46314;52.392;9.758;2023-06-10T04:22:43;101096.47;;;14.65;83.59
60465;BME280;46314;52.392;9.758;2023-06-10T04:25:10;101095.94;;;14.85;82.72
60465;BME280;46314;52.392;9.758;2023-06-10T04:27:37;101095.47;;;14.47;85.73
60465;BME280;46314;52.392;9.758;2023-06-10T04:30:06;101085.50;;;14.09;86.98
60465;BME280;46314;52.392;9.758;2023-06-10T04:32:33;101086.72;;;14.17;87.11
60465;BME280;46314;52.392;9.758;2023-06-10T04:35:00;101082.50;;;14.19;86.51
60465;BME280;46314;52.392;9.758;2023-06-10T04:37:26;101083.50;;;14.24;86.69
60465;BME280;46314;52.392;9.758;2023-06-10T04:39:53;101079.03;;;14.23;86.70
60465;BME280;46314;52.392;9.758;2023-06-10T04:42:19;101086.47;;;14.50;85.27
60465;BME280;46314;52.392;9.758;2023-06-10T04:44:45;101086.13;;;14.96;83.41
60465;BME280;46314;52.392;9.758;2023-06-10T04:47:13;101087.41;;;14.90;83.66
60465;BME280;46314;52.392;9.758;2023-06-10T04:49:40;101085.31;;;14.96;82.82
60465;BME280;46314;52.392;9.758;2023-06-10T04:52:07;101092.31;;;14.39;85.18
60465;BME280;46314;52.392;9.758;2023-06-10T04:54:33;101092.00;;;14.86;83.14
60465;BME280;46314;52.392;9.758;2023-06-10T04:57:00;101093.66;;;14.65;83.52
60465;BME280;46314;52.392;9.758;2023-06-10T04:59:26;101088.06;;;14.65;83.79
60465;BME280;46314;52.392;9.758;2023-06-10T05:01:53;101092.75;;;15.01;81.80
60465;BME280;46314;52.392;9.758;2023-06-10T05:04:21;101091.75;;;14.51;84.03
60465;BME280;46314;52.392;9.758;2023-06-10T05:06:47;101099.41;;;14.91;82.31
60465;BME280;46314;52.392;9.758;2023-06-10T05:09:14;101088.09;;;14.96;81.91
60465;BME280;46314;52.392;9.758;2023-06-10T05:11:40;101086.31;;;14.69;83.58
60465;BME280;46314;52.392;9.758;2023-06-10T05:14:07;101105.81;;;15.23;80.74
60465;BME280;46314;52.392;9.758;2023-06-10T05:16:33;101101.31;;;15.53;78.94
60465;BME280;46314;52.392;9.758;2023-06-10T05:19:00;101101.16;;;15.58;79.94
60465;BME280;46314;52.392;9.758;2023-06-10T05:21:27;101096.50;;;15.76;77.85
60465;BME280;46314;52.392;9.758;2023-06-10T05:23:54;101090.94;;;15.94;77.68
60465;BME280;46314;52.392;9.758;2023-06-10T05:26:21;101093.06;;;16.23;76.28
60465;BME280;46314;52.392;9.758;2023-06-10T05:28:48;101097.09;;;15.73;77.78
60465;BME280;46314;52.392;9.758;2023-06-10T05:31:14;101098.63;;;15.30;80.17
60465;BME280;46314;52.392;9.758;2023-06-10T05:33:41;101093.53;;;15.81;77.76
60465;BME280;46314;52.392;9.758;2023-06-10T05:36:07;101092.72;;;16.16;76.44
60465;BME280;46314;52.392;9.758;2023-06-10T05:38:35;101099.31;;;17.58;70.92
60465;BME280;46314;52.392;9.758;2023-06-10T05:41:01;101096.97;;;16.57;73.50
60465;BME280;46314;52.392;9.758;2023-06-10T05:43:28;101096.16;;;16.56;74.30
60465;BME280;46314;52.392;9.758;2023-06-10T05:45:54;101098.97;;;16.65;73.36
60465;BME280;46314;52.392;9.758;2023-06-10T05:48:21;101105.13;;;20.23;61.00
60465;BME280;46314;52.392;9.758;2023-06-10T05:50:47;101092.00;;;22.54;52.06
60465;BME280;46314;52.392;9.758;2023-06-10T05:53:14;101099.59;;;22.93;50.62
60465;BME280;46314;52.392;9.758;2023-06-10T05:55:42;101102.47;;;25.21;44.57
60465;BME280;46314;52.392;9.758;2023-06-10T05:58:08;101093.34;;;25.42;44.37
60465;BME280;46314;52.392;9.758;2023-06-10T06:00:35;101101.09;;;23.29;47.38
60465;BME280;46314;52.392;9.758;2023-06-10T06:03:05;101100.81;;;25.68;43.73
60465;BME280;46314;52.392;9.758;2023-06-10T06:05:32;101109.91;;;28.41;37.40
60465;BME280;46314;52.392;9.758;2023-06-10T06:07:58;101102.97;;;25.85;40.79
60465;BME280;46314;52.392;9.758;2023-06-10T06:10:24;101107.19;;;27.26;38.38
60465;BME280;46314;52.392;9.758;2023-06-10T06:12:52;101105.13;;;26.03;41.16
60465;BME280;46314;52.392;9.758;2023-06-10T06:15:19;101104.31;;;26.97;38.57
60465;BME280;46314;52.392;9.758;2023-06-10T06:17:46;101094.81;;;26.54;39.84
60465;BME280;46314;52.392;9.758;2023-06-10T06:20:13;101111.09;;;29.77;33.28
60465;BME280;46314;52.392;9.758;2023-06-10T06:22:40;101105.53;;;26.96;38.11
60465;BME280;46314;52.392;9.758;2023-06-10T06:25:07;101105.63;;;30.28;33.08
60465;BME280;46314;52.392;9.758;2023-06-10T06:27:34;101114.22;;;30.28;33.01
60465;BME280;46314;52.392;9.758;2023-06-10T06:30:03;101110.69;;;32.68;29.47
60465;BME280;46314;52.392;9.758;2023-06-10T06:32:30;101113.31;;;32.78;29.20
60465;BME280;46314;52.392;9.758;2023-06-10T06:34:57;101113.25;;;30.42;31.67
60465;BME280;46314;52.392;9.758;2023-06-10T06:37:24;101108.00;;;27.77;36.27
60465;BME280;46314;52.392;9.758;2023-06-10T06:39:51;101111.00;;;31.42;30.80
60465;BME280;46314;52.392;9.758;2023-06-10T06:42:18;101111.53;;;32.85;28.62
60465;BME280;46314;52.392;9.758;2023-06-10T06:44:45;101106.59;;;28.61;35.51
60465;BME280;46314;52.392;9.758;2023-06-10T06:47:13;101108.75;;;29.05;34.88
60465;BME280;46314;52.392;9.758;2023-06-10T06:49:40;101107.44;;;28.54;35.87
60465;BME280;46314;52.392;9.758;2023-06-10T06:52:07;101101.47;;;33.29;29.87
60465;BME280;46314;52.392;9.758;2023-06-10T06:54:33;101106.16;;;30.54;32.94
60465;BME280;46314;52.392;9.758;2023-06-10T06:57:00;101097.66;;;32.23;30.25
60465;BME280;46314;52.392;9.758;2023-06-10T06:59:26;101080.47;;;25.59;41.29
60465;BME280;46314;52.392;9.758;2023-06-10T07:01:53;101071.16;;;21.36;52.58
60465;BME280;46314;52.392;9.758;2023-06-10T07:04:23;101077.78;;;23.89;51.46
60465;BME280;46314;52.392;9.758;2023-06-10T07:06:51;101079.72;;;21.56;55.78
60465;BME280;46314;52.392;9.758;2023-06-10T07:09:17;101079.97;;;20.59;57.78
60465;BME280;46314;52.392;9.758;2023-06-10T07:11:44;101080.94;;;20.79;57.23
60465;BME280;46314;52.392;9.758;2023-06-10T07:14:10;101093.00;;;19.82;61.56
60465;BME280;46314;52.392;9.758;2023-06-10T07:16:37;101092.03;;;19.17;63.50
60465;BME280;46314;52.392;9.758;2023-06-10T07:19:03;101096.50;;;19.67;62.92
60465;BME280;46314;52.392;9.758;2023-06-10T07:21:33;101095.03;;;18.87;63.76
60465;BME280;46314;52.392;9.758;2023-06-10T07:23:59;101094.09;;;21.19;58.15
60465;BME280;46314;52.392;9.758;2023-06-10T07:26:26;101097.81;;;20.63;58.46
60465;BME280;46314;52.392;9.758;2023-06-10T07:28:52;101105.78;;;19.67;60.90
60465;BME280;46314;52.392;9.758;2023-06-10T07:31:19;101110.28;;;20.21;61.44
60465;BME280;46314;52.392;9.758;2023-06-10T07:33:46;101104.97;;;20.89;58.28
60465;BME280;46314;52.392;9.758;2023-06-10T07:36:13;101108.03;;;24.72;45.72
60465;BME280;46314;52.392;9.758;2023-06-10T07:38:40;101099.00;;;21.22;54.53
60465;BME280;46314;52.392;9.758;2023-06-10T07:41:07;101109.31;;;19.77;62.00
60465;BME280;46314;52.392;9.758;2023-06-10T07:43:34;101108.53;;;20.86;56.58
60465;BME280;46314;52.392;9.758;2023-06-10T07:46:00;101104.25;;;22.62;54.86
60465;BME280;46314;52.392;9.758;2023-06-10T07:48:27;101102.41;;;20.27;59.65
60465;BME280;46314;52.392;9.758;2023-06-10T07:50:53;101095.81;;;21.40;56.61
60465;BME280;46314;52.392;9.758;2023-06-10T07:53:19;101103.44;;;21.87;53.71
60465;BME280;46314;52.392;9.758;2023-06-10T07:55:47;101094.97;;;20.91;57.87
60465;BME280;46314;52.392;9.758;2023-06-10T07:58:14;101100.00;;;20.01;60.22
60465;BME280;46314;52.392;9.758;2023-06-10T08:00:40;101099.75;;;20.06;60.73
60465;BME280;46314;52.392;9.758;2023-06-10T08:03:07;101098.81;;;20.14;59.75
60465;BME280;46314;52.392;9.758;2023-06-10T08:05:34;101108.22;;;20.75;58.79
60465;BME280;46314;52.392;9.758;2023-06-10T08:08:00;101099.88;;;21.90;56.00
60465;BME280;46314;52.392;9.758;2023-06-10T08:10:29;101103.03;;;20.08;59.71
60465;BME280;46314;52.392;9.758;2023-06-10T08:12:57;101102.63;;;21.70;54.30
60465;BME280;46314;52.392;9.758;2023-06-10T08:15:25;101104.72;;;19.97;60.27
60465;BME280;46314;52.392;9.758;2023-06-10T08:17:51;101102.88;;;20.57;59.20
60465;BME280;46314;52.392;9.758;2023-06-10T08:20:18;101094.41;;;19.64;61.64
60465;BME280;46314;52.392;9.758;2023-06-10T08:22:44;101100.72;;;19.73;61.95
60465;BME280;46314;52.392;9.758;2023-06-10T08:25:11;101092.31;;;20.26;59.94
60465;BME280;46314;52.392;9.758;2023-06-10T08:27:37;101091.25;;;20.59;59.23
60465;BME280;46314;52.392;9.758;2023-06-10T08:30:06;101088.59;;;20.10;59.40
60465;BME280;46314;52.392;9.758;2023-06-10T08:32:33;101090.78;;;20.57;59.54
60465;BME280;46314;52.392;9.758;2023-06-10T08:34:59;101086.41;;;23.00;52.87
60465;BME280;46314;52.392;9.758;2023-06-10T08:37:26;101089.22;;;22.19;53.78
60465;BME280;46314;52.392;9.758;2023-06-10T08:39:52;101078.63;;;23.40;51.43
60465;BME280;46314;52.392;9.758;2023-06-10T08:42:22;101086.06;;;21.05;55.16
60465;BME280;46314;52.392;9.758;2023-06-10T08:44:53;101083.34;;;21.72;54.19
60465;BME280;46314;52.392;9.758;2023-06-10T08:47:23;101083.22;;;20.89;56.79
60465;BME280;46314;52.392;9.758;2023-06-10T08:49:50;101079.63;;;21.21;57.05
60465;BME280;46314;52.392;9.758;2023-06-10T08:52:18;101075.72;;;21.57;55.47
60465;BME280;46314;52.392;9.758;2023-06-10T08:54:48;101065.78;;;20.99;55.81
60465;BME280;46314;52.392;9.758;2023-06-10T08:57:16;101066.47;;;22.50;51.69
60465;BME280;46314;52.392;9.758;2023-06-10T08:59:44;101070.88;;;21.42;54.42
60465;BME280;46314;52.392;9.758;2023-06-10T09:02:11;101073.88;;;22.36;53.09
60465;BME280;46314;52.392;9.758;2023-06-10T09:04:42;101070.59;;;23.19;51.23
60465;BME280;46314;52.392;9.758;2023-06-10T09:07:10;101072.66;;;21.82;53.55
60465;BME280;46314;52.392;9.758;2023-06-10T09:09:37;101066.97;;;22.17;52.55
60465;BME280;46314;52.392;9.758;2023-06-10T09:12:04;101065.59;;;22.27;52.10
60465;BME280;46314;52.392;9.758;2023-06-10T09:14:31;101067.16;;;21.89;53.00
60465;BME280;46314;52.392;9.758;2023-06-10T09:16:57;101068.22;;;22.78;51.66
60465;BME280;46314;52.392;9.758;2023-06-10T09:19:25;101065.22;;;23.37;49.73
60465;BME280;46314;52.392;9.758;2023-06-10T09:21:54;101051.06;;;22.91;48.54
60465;BME280;46314;52.392;9.758;2023-06-10T09:24:22;101063.38;;;22.36;49.55
60465;BME280;46314;52.392;9.758;2023-06-10T09:26:49;101057.53;;;22.09;49.96
60465;BME280;46314;52.392;9.758;2023-06-10T09:29:15;101056.06;;;22.78;49.51
60465;BME280;46314;52.392;9.758;2023-06-10T09:31:43;101049.78;;;22.65;49.88
60465;BME280;46314;52.392;9.758;2023-06-10T09:34:11;101058.00;;;22.50;48.81
60465;BME280;46314;52.392;9.758;2023-06-10T09:36:39;101061.09;;;22.65;49.18
60465;BME280;46314;52.392;9.758;2023-06-10T09:39:14;101050.59;;;22.26;49.50
60465;BME280;46314;52.392;9.758;2023-06-10T09:41:41;101061.22;;;22.72;48.97
60465;BME280;46314;52.392;9.758;2023-06-10T09:44:11;101068.44;;;24.15;46.32
60465;BME280;46314;52.392;9.758;2023-06-10T09:46:38;101056.78;;;24.54;45.71
60465;BME280;46314;52.392;9.758;2023-06-10T09:49:05;101051.63;;;23.46;46.75
60465;BME280;46314;52.392;9.758;2023-06-10T09:51:31;101056.69;;;23.60;45.53
60465;BME280;46314;52.392;9.758;2023-06-10T09:53:59;101056.84;;;23.44;46.60
60465;BME280;46314;52.392;9.758;2023-06-10T09:56:33;101042.78;;;23.78;45.87
60465;BME280;46314;52.392;9.758;2023-06-10T09:59:00;101052.25;;;23.36;45.75
60465;BME280;46314;52.392;9.758;2023-06-10T10:01:27;101058.22;;;23.54;45.40
60465;BME280;46314;52.392;9.758;2023-06-10T10:03:54;101058.16;;;23.50;45.25
60465;BME280;46314;52.392;9.758;2023-06-10T10:06:20;101049.63;;;23.73;43.86
60465;BME280;46314;52.392;9.758;2023-06-10T10:08:49;101052.31;;;24.23;42.89
60465;BME280;46314;52.392;9.758;2023-06-10T10:11:17;101053.06;;;24.88;42.19
60465;BME280;46314;52.392;9.758;2023-06-10T10:13:48;101053.00;;;23.83;45.35
60465;BME280;46314;52.392;9.758;2023-06-10T10:16:16;101058.47;;;23.98;45.82
60465;BME280;46314;52.392;9.758;2023-06-10T10:18:49;101052.41;;;24.30;45.90
60465;BME280;46314;52.392;9.758;2023-06-10T10:21:20;101050.88;;;24.70;43.93
60465;BME280;46314;52.392;9.758;2023-06-10T10:23:51;101052.19;;;24.80;44.20
60465;BME280;46314;52.392;9.758;2023-06-10T10:26:21;101036.81;;;25.26;43.86
60465;BME280;46314;52.392;9.758;2023-06-10T10:28:56;101044.22;;;24.93;44.34
60465;BME280;46314;52.392;9.758;2023-06-10T10:31:26;101054.75;;;24.55;45.22
60465;BME280;46314;52.392;9.758;2023-06-10T10:33:56;101049.22;;;24.02;45.94
60465;BME280;46314;52.392;9.758;2023-06-10T10:36:25;101058.47;;;24.59;46.00
60465;BME280;46314;52.392;9.758;2023-06-10T10:38:51;101047.09;;;25.45;44.22
60465;BME280;46314;52.392;9.758;2023-06-10T10:41:19;101047.59;;;25.54;43.62
60465;BME280;46314;52.392;9.758;2023-06-10T10:43:46;101054.91;;;25.10;44.73
60465;BME280;46314;52.392;9.758;2023-06-10T10:46:16;101051.22;;;24.65;45.63
60465;BME280;46314;52.392;9.758;2023-06-10T10:48:44;101038.25;;;25.57;43.93
60465;BME280;46314;52.392;9.758;2023-06-10T10:51:10;101035.25;;;24.87;45.24
60465;BME280;46314;52.392;9.758;2023-06-10T10:53:37;101040.19;;;24.56;46.64
60465;BME280;46314;52.392;9.758;2023-06-10T10:56:05;101043.25;;;24.78;46.66
60465;BME280;46314;52.392;9.758;2023-06-10T10:58:32;101046.31;;;24.62;47.30
60465;BME280;46314;52.392;9.758;2023-06-10T11:00:58;101035.19;;;24.80;47.24
60465;BME280;46314;52.392;9.758;2023-06-10T11:03:29;101045.66;;;24.76;47.88
60465;BME280;46314;52.392;9.758;2023-06-10T11:05:57;101031.59;;;25.31;46.92
60465;BME280;46314;52.392;9.758;2023-06-10T11:08:48;101037.06;;;26.35;44.78
60465;BME280;46314;52.392;9.758;2023-06-10T11:11:20;101032.94;;;25.52;46.63
60465;BME280;46314;52.392;9.758;2023-06-10T11:14:07;101027.53;;;25.95;45.98
60465;BME280;46314;52.392;9.758;2023-06-10T11:16:38;101028.31;;;25.26;47.07
60465;BME280;46314;52.392;9.758;2023-06-10T11:19:07;101028.44;;;25.44;47.02
60465;BME280;46314;52.392;9.758;2023-06-10T11:21:45;101024.25;;;25.89;46.56
60465;BME280;46314;52.392;9.758;2023-06-10T11:24:23;101023.38;;;27.24;45.50
60465;BME280;46314;52.392;9.758;2023-06-10T11:26:50;101028.56;;;26.46;45.22
60465;BME280;46314;52.392;9.758;2023-06-10T11:29:16;101014.88;;;25.85;47.06
60465;BME280;46314;52.392;9.758;2023-06-10T11:31:44;101012.69;;;25.61;47.24
60465;BME280;46314;52.392;9.758;2023-06-10T11:34:13;101022.50;;;25.70;47.14
60465;BME280;46314;52.392;9.758;2023-06-10T11:36:41;101008.22;;;26.37;45.18
60465;BME280;46314;52.392;9.758;2023-06-10T11:39:08;100997.66;;;26.41;45.84
60465;BME280;46314;52.392;9.758;2023-06-10T11:41:37;101008.47;;;26.03;45.83
60465;BME280;46314;52.392;9.758;2023-06-10T11:44:04;101007.50;;;26.69;44.07
60465;BME280;46314;52.392;9.758;2023-06-10T11:46:33;101009.38;;;26.21;44.28
60465;BME280;46314;52.392;9.758;2023-06-10T11:49:01;101010.06;;;25.93;46.07
60465;BME280;46314;52.392;9.758;2023-06-10T11:51:32;101002.63;;;26.73;44.71
60465;BME280;46314;52.392;9.758;2023-06-10T11:53:58;100999.38;;;26.81;44.04
60465;BME280;46314;52.392;9.758;2023-06-10T11:56:27;100996.53;;;27.07;43.94
60465;BME280;46314;52.392;9.758;2023-06-10T11:58:55;100996.13;;;26.72;44.90
60465;BME280;46314;52.392;9.758;2023-06-10T12:01:22;100993.25;;;26.61;44.36
60465;BME280;46314;52.392;9.758;2023-06-10T12:03:59;100993.69;;;26.71;44.26
60465;BME280;46314;52.392;9.758;2023-06-10T12:06:26;100996.88;;;26.48;43.35
60465;BME280;46314;52.392;9.758;2023-06-10T12:08:54;100991.03;;;26.08;44.20
60465;BME280;46314;52.392;9.758;2023-06-10T12:11:24;100985.09;;;26.49;44.13
60465;BME280;46314;52.392;9.758;2023-06-10T12:13:50;100987.56;;;27.19;43.34
60465;BME280;46314;52.392;9.758;2023-06-10T12:16:17;100998.06;;;26.43;44.21
60465;BME280;46314;52.392;9.758;2023-06-10T12:18:44;101000.81;;;26.07;43.70
60465;BME280;46314;52.392;9.758;2023-06-10T12:21:18;100985.72;;;25.96;44.35
60465;BME280;46314;52.392;9.758;2023-06-10T12:24:03;100981.88;;;26.61;43.09
60465;BME280;46314;52.392;9.758;2023-06-10T12:26:37;100976.59;;;27.43;41.55
60465;BME280;46314;52.392;9.758;2023-06-10T12:29:15;100979.06;;;26.83;42.81
60465;BME280;46314;52.392;9.758;2023-06-10T12:31:58;100969.69;;;27.15;42.45
60465;BME280;46314;52.392;9.758;2023-06-10T12:34:30;100977.00;;;26.83;41.69
60465;BME280;46314;52.392;9.758;2023-06-10T12:36:56;100966.41;;;26.70;40.89
60465;BME280;46314;52.392;9.758;2023-06-10T12:39:24;100965.63;;;26.83;40.97
60465;BME280;46314;52.392;9.758;2023-06-10T12:41:52;100960.75;;;26.91;40.91
60465;BME280;46314;52.392;9.758;2023-06-10T12:44:28;100962.34;;;27.21;39.83
60465;BME280;46314;52.392;9.758;2023-06-10T12:46:54;100953.28;;;27.76;39.18
60465;BME280;46314;52.392;9.758;2023-06-10T12:49:21;100959.84;;;27.55;39.36
60465;BME280;46314;52.392;9.758;2023-06-10T12:51:47;100957.38;;;27.68;39.35